Time;durP1;ratioP1;P1;durP2;ratioP2;P2;SDS_P1;SDS_P2;PMS_P1;PMS_P2;Temp;Humidity;BMP_temperature;BMP_pressure;BME280_temperature;BME280_humidity;BME280_pressure;Samples;Min_cycle;Max_cycle;Signal;HPM_P1;HPM_P2
2022/06/23 00:01:01;;;;;;;17.98;4.22;;;22.70;99.90;;;;;;4953618;28;20023;-79
2022/06/23 00:03:31;;;;;;;17.75;4.60;;;22.60;99.90;;;;;;4974114;28;20154;-79
2022/06/23 00:06:01;;;;;;;16.33;4.75;;;22.50;99.90;;;;;;4974140;28;20169;-79
2022/06/23 00:08:27;;;;;;;16.35;4.40;;;22.40;99.90;;;;;;4973850;28;20026;-78
2022/06/23 00:10:56;;;;;;;13.05;3.85;;;22.20;99.90;;;;;;4973453;28;20022;-79
2022/06/23 00:13:44;;;;;;;14.48;4.10;;;22.20;99.90;;;;;;4973850;28;20116;-79
2022/06/23 00:16:26;;;;;;;16.88;4.05;;;22.10;99.90;;;;;;4970526;28;20038;-79
2022/06/23 00:18:52;;;;;;;10.52;3.78;;;22.10;99.90;;;;;;4974478;28;20422;-79
2022/06/23 00:21:23;;;;;;;13.63;3.53;;;22.20;99.90;;;;;;4973442;28;20078;-79
2022/06/23 00:23:54;;;;;;;17.00;3.78;;;22.10;99.90;;;;;;4973521;28;20127;-79
2022/06/23 00:26:27;;;;;;;15.02;4.20;;;22.10;99.90;;;;;;4973179;28;20026;-79
2022/06/23 00:28:57;;;;;;;12.60;3.72;;;22.10;99.90;;;;;;4956230;28;20525;-80
2022/06/23 00:31:22;;;;;;;18.05;4.13;;;22.00;99.90;;;;;;4973371;28;20027;-79
2022/06/23 00:33:48;;;;;;;12.80;3.67;;;22.00;99.90;;;;;;4974045;28;20538;-80
2022/06/23 00:36:59;;;;;;;12.23;4.18;;;22.00;99.90;;;;;;4973670;28;20136;-80
2022/06/23 00:39:59;;;;;;;15.68;4.53;;;22.00;99.90;;;;;;4968400;28;20063;-79
2022/06/23 00:42:38;;;;;;;13.07;3.97;;;22.00;99.90;;;;;;4955792;28;20484;-79
2022/06/23 00:45:24;;;;;;;11.07;3.67;;;21.90;99.90;;;;;;4973190;28;20046;-79
2022/06/23 00:48:16;;;;;;;10.88;3.72;;;22.10;99.90;;;;;;4972365;28;20507;-79
2022/06/23 00:50:56;;;;;;;11.60;3.50;;;22.00;99.90;;;;;;4973037;28;20022;-79
2022/06/23 00:53:38;;;;;;;12.98;3.97;;;22.00;99.90;;;;;;4973106;28;20030;-79
2022/06/23 00:56:26;;;;;;;15.65;3.97;;;22.00;99.90;;;;;;4972634;28;20474;-79
2022/06/23 00:58:56;;;;;;;11.95;3.40;;;21.90;99.90;;;;;;4954870;28;20392;-79
2022/06/23 01:01:28;;;;;;;13.20;3.35;;;21.90;99.90;;;;;;4973158;28;20034;-79
2022/06/23 01:04:21;;;;;;;11.05;3.70;;;22.00;99.90;;;;;;4973366;28;20046;-79
2022/06/23 01:07:26;;;;;;;8.40;3.30;;;22.10;99.90;;;;;;4971974;28;20023;-79
2022/06/23 01:09:57;;;;;;;12.20;3.42;;;22.30;99.90;;;;;;4881163;29;20041;-79
2022/06/23 01:12:51;;;;;;;14.13;3.63;;;22.20;99.90;;;;;;4884498;29;20097;-79
2022/06/23 01:15:31;;;;;;;9.75;3.10;;;22.30;99.90;;;;;;4837190;29;20046;-79
2022/06/23 01:18:20;;;;;;;10.25;3.25;;;22.40;99.90;;;;;;4838576;29;20057;-79
2022/06/23 01:20:48;;;;;;;12.77;3.40;;;22.30;99.90;;;;;;4838565;29;20174;-79
2022/06/23 01:23:35;;;;;;;14.23;3.80;;;22.10;99.90;;;;;;4838666;29;20038;-79
2022/06/23 01:26:16;;;;;;;11.77;3.17;;;22.00;99.90;;;;;;4838608;29;20090;-79
2022/06/23 01:28:42;;;;;;;12.27;3.38;;;22.20;99.90;;;;;;4825452;29;20057;-79
2022/06/23 01:31:25;;;;;;;14.35;3.40;;;22.30;99.90;;;;;;4838807;29;20065;-79
2022/06/23 01:33:54;;;;;;;15.48;3.10;;;22.30;99.90;;;;;;4839144;29;20030;-79
2022/06/23 01:36:40;;;;;;;17.52;3.45;;;22.30;99.90;;;;;;4838563;29;20033;-80
2022/06/23 01:39:15;;;;;;;10.93;3.50;;;22.10;99.90;;;;;;4822733;29;20060;-79
2022/06/23 01:41:56;;;;;;;11.52;3.22;;;22.30;99.90;;;;;;4838413;29;20062;-79
2022/06/23 01:44:47;;;;;;;14.98;3.63;;;22.20;99.90;;;;;;4841291;29;20137;-79
2022/06/23 01:47:34;;;;;;;12.82;3.25;;;22.00;99.90;;;;;;4893651;29;20036;-79
2022/06/23 01:50:37;;;;;;;13.02;3.70;;;22.20;99.90;;;;;;4893898;29;20024;-79
2022/06/23 01:53:08;;;;;;;10.75;3.65;;;22.30;99.90;;;;;;4942533;28;20443;-79
2022/06/23 01:56:03;;;;;;;11.23;3.58;;;22.20;99.90;;;;;;4957735;28;20069;-79
2022/06/23 01:58:52;;;;;;;12.55;3.55;;;22.10;99.90;;;;;;4973719;28;20062;-79
2022/06/23 02:01:47;;;;;;;15.07;3.50;;;22.00;99.90;;;;;;4974928;28;20052;-79
2022/06/23 02:04:27;;;;;;;12.25;3.63;;;22.10;99.90;;;;;;4879530;29;20085;-79
2022/06/23 02:06:58;;;;;;;14.02;3.60;;;22.20;99.90;;;;;;4897092;29;20032;-79
2022/06/23 02:09:41;;;;;;;14.70;3.45;;;22.20;99.90;;;;;;4892638;29;20041;-79
2022/06/23 02:12:24;;;;;;;12.68;3.15;;;22.30;99.90;;;;;;4892376;29;20040;-79
2022/06/23 02:14:57;;;;;;;15.20;4.07;;;22.10;99.90;;;;;;4891755;29;20110;-79
2022/06/23 02:17:44;;;;;;;13.82;4.15;;;22.00;99.90;;;;;;4891675;29;20545;-79
2022/06/23 02:20:26;;;;;;;13.38;3.70;;;22.00;99.90;;;;;;4892200;29;20494;-79
2022/06/23 02:23:01;;;;;;;17.88;4.22;;;22.10;99.90;;;;;;4893266;29;20541;-79
2022/06/23 02:25:33;;;;;;;10.60;3.90;;;22.10;99.90;;;;;;4895793;29;20027;-79
2022/06/23 02:28:39;;;;;;;16.80;3.88;;;22.10;99.90;;;;;;4893513;29;20058;-79
2022/06/23 02:31:26;;;;;;;11.63;3.67;;;22.00;99.90;;;;;;4802238;29;20043;-79
2022/06/23 02:34:17;;;;;;;13.43;3.85;;;22.00;99.90;;;;;;4804662;29;20518;-79
2022/06/23 02:36:42;;;;;;;14.52;4.20;;;22.00;99.90;;;;;;4807014;29;20043;-79
2022/06/23 02:39:17;;;;;;;14.30;4.25;;;22.10;99.90;;;;;;4802430;29;20643;-80
2022/06/23 02:41:55;;;;;;;14.63;4.30;;;22.10;99.90;;;;;;4859144;29;20138;-80
2022/06/23 02:45:06;;;;;;;10.60;4.18;;;22.00;99.90;;;;;;4874493;29;20538;-79
2022/06/23 02:47:47;;;;;;;12.77;3.70;;;22.00;99.90;;;;;;4873989;29;20037;-79
2022/06/23 02:50:18;;;;;;;11.50;3.78;;;22.10;99.90;;;;;;4874050;29;20038;-79
2022/06/23 02:53:08;;;;;;;14.30;4.60;;;21.90;99.90;;;;;;4875822;29;20488;-79
2022/06/23 02:55:56;;;;;;;17.02;4.38;;;21.90;99.90;;;;;;4863642;29;20048;-79
2022/06/23 02:58:32;;;;;;;9.00;3.65;;;21.80;99.90;;;;;;4876794;29;20033;-80
2022/06/23 03:01:05;;;;;;;10.32;3.70;;;21.90;99.90;;;;;;4890117;28;20081;-80
2022/06/23 03:03:40;;;;;;;10.93;3.60;;;21.90;99.90;;;;;;4974863;28;20035;-79
2022/06/23 03:06:20;;;;;;;15.95;4.47;;;21.80;99.90;;;;;;4974435;28;20097;-80
2022/06/23 03:08:54;;;;;;;16.48;3.90;;;21.80;99.90;;;;;;4974839;28;20125;-79
2022/06/23 03:14:18;;;;;;;12.75;4.32;;;21.50;99.90;;;;;;4975230;28;20041;-79
2022/06/23 03:16:51;;;;;;;12.98;3.95;;;21.40;99.90;;;;;;4974733;28;20061;-80
2022/06/23 03:19:31;;;;;;;13.85;3.78;;;21.50;99.90;;;;;;4975093;28;20026;-80
2022/06/23 03:22:02;;;;;;;12.52;4.00;;;21.40;99.90;;;;;;4975104;28;20106;-79
2022/06/23 03:24:57;;;;;;;19.85;4.63;;;21.40;99.90;;;;;;4974763;28;20038;-79
2022/06/23 03:27:30;;;;;;;13.98;4.57;;;21.50;99.90;;;;;;4974437;28;20162;-79
2022/06/23 03:30:04;;;;;;;11.88;3.70;;;21.50;99.90;;;;;;4974350;28;20018;-79
2022/06/23 03:32:41;;;;;;;14.93;4.03;;;21.50;99.90;;;;;;4974572;28;20094;-79
2022/06/23 03:35:13;;;;;;;10.70;3.75;;;21.40;99.90;;;;;;4974279;28;20030;-79
2022/06/23 03:37:45;;;;;;;12.82;4.05;;;21.50;99.90;;;;;;4974454;28;20042;-79
2022/06/23 03:43:33;;;;;;;12.27;3.88;;;21.50;99.90;;;;;;4959168;28;20081;-80
2022/06/23 03:46:40;;;;;;;11.88;4.10;;;21.50;99.90;;;;;;4970882;28;20038;-79
2022/06/23 03:49:41;;;;;;;13.52;4.03;;;21.40;99.90;;;;;;4895950;29;20064;-79
2022/06/23 03:52:41;;;;;;;12.52;3.90;;;21.50;99.90;;;;;;4837320;29;20046;-79
2022/06/23 03:55:25;;;;;;;12.50;3.90;;;21.60;99.90;;;;;;4837111;29;20042;-79
2022/06/23 03:57:58;;;;;;;17.17;4.00;;;21.70;99.90;;;;;;4835703;29;20531;-79
2022/06/23 04:00:41;;;;;;;14.18;4.57;;;21.70;99.90;;;;;;4839348;29;20524;-79
2022/06/23 04:03:19;;;;;;;14.77;4.72;;;21.60;99.90;;;;;;4836892;29;20503;-79
2022/06/23 04:06:10;;;;;;;19.27;5.13;;;21.60;99.90;;;;;;4836664;29;20558;-79
2022/06/23 04:08:45;;;;;;;15.10;4.78;;;21.60;99.90;;;;;;4837158;29;20030;-79
2022/06/23 04:14:28;;;;;;;14.57;5.32;;;21.50;99.90;;;;;;4855429;29;20072;-79
2022/06/23 04:17:17;;;;;;;12.68;5.07;;;21.40;99.90;;;;;;4855278;29;20037;-79
2022/06/23 04:19:50;;;;;;;16.75;4.70;;;21.30;99.90;;;;;;4881884;29;20128;-79
2022/06/23 04:22:22;;;;;;;16.27;4.80;;;21.20;99.90;;;;;;4910373;29;20518;-79
2022/06/23 04:24:53;;;;;;;16.25;5.40;;;21.20;99.90;;;;;;4899795;29;20123;-79
2022/06/23 04:27:23;;;;;;;13.30;5.15;;;21.30;99.90;;;;;;4905867;29;20429;-79
2022/06/23 04:29:55;;;;;;;13.70;4.65;;;21.30;99.90;;;;;;4963973;28;20039;-79
2022/06/23 04:32:25;;;;;;;14.32;5.35;;;21.40;99.90;;;;;;4970823;28;20022;-79
2022/06/23 04:34:53;;;;;;;18.95;4.97;;;21.30;99.90;;;;;;4971156;28;20031;-79
2022/06/23 04:37:55;;;;;;;19.23;5.05;;;21.30;99.90;;;;;;4971204;28;20036;-79
2022/06/23 04:40:47;;;;;;;13.93;4.65;;;21.30;99.90;;;;;;4957400;28;20047;-79
2022/06/23 04:43:42;;;;;;;14.07;4.65;;;21.30;99.90;;;;;;4968923;28;20592;-79
2022/06/23 04:46:35;;;;;;;13.68;4.57;;;21.40;99.90;;;;;;4965385;28;20086;-79
2022/06/23 04:49:24;;;;;;;13.40;4.82;;;21.40;99.90;;;;;;4969623;28;20486;-79
2022/06/23 04:51:53;;;;;;;12.02;4.78;;;21.30;99.90;;;;;;4972810;28;20030;-79
2022/06/23 04:54:24;;;;;;;13.60;4.72;;;21.30;99.90;;;;;;4973243;28;20045;-79
2022/06/23 04:56:55;;;;;;;13.07;4.22;;;21.20;99.90;;;;;;4972822;28;20089;-79
2022/06/23 04:59:36;;;;;;;14.63;4.47;;;21.20;99.90;;;;;;4972820;28;20026;-79
2022/06/23 05:02:31;;;;;;;11.35;4.82;;;21.30;99.90;;;;;;4972545;28;20037;-79
2022/06/23 05:05:12;;;;;;;15.90;4.35;;;21.40;99.90;;;;;;4960965;28;20588;-79
2022/06/23 05:07:49;;;;;;;12.02;4.00;;;21.30;99.90;;;;;;4958337;28;20387;-79
2022/06/23 05:10:20;;;;;;;15.38;3.90;;;21.20;99.90;;;;;;4973254;28;20475;-79
2022/06/23 05:12:51;;;;;;;11.07;4.38;;;21.30;99.90;;;;;;4971750;28;20027;-79
2022/06/23 05:15:26;;;;;;;14.13;4.00;;;21.30;99.90;;;;;;4972535;28;20117;-79
2022/06/23 05:17:57;;;;;;;12.43;3.45;;;21.50;99.90;;;;;;4972818;28;20035;-79
2022/06/23 05:20:48;;;;;;;12.70;3.47;;;21.40;99.90;;;;;;4972999;28;20038;-79
2022/06/23 05:23:21;;;;;;;13.15;4.03;;;21.60;99.90;;;;;;4972194;28;20034;-79
2022/06/23 05:25:49;;;;;;;10.90;3.40;;;21.70;99.90;;;;;;4972554;28;20376;-79
2022/06/23 05:28:22;;;;;;;11.13;4.07;;;21.80;99.90;;;;;;4972965;28;20059;-79
2022/06/23 05:30:59;;;;;;;12.70;4.03;;;21.80;99.90;;;;;;4971498;28;20031;-79
2022/06/23 05:33:32;;;;;;;12.82;4.10;;;21.90;99.90;;;;;;4971944;28;20054;-79
2022/06/23 05:36:03;;;;;;;15.23;3.83;;;22.00;99.90;;;;;;4972810;28;20034;-79
2022/06/23 05:38:52;;;;;;;15.57;4.15;;;22.10;99.90;;;;;;4972028;28;20522;-79
2022/06/23 05:41:42;;;;;;;12.70;3.35;;;22.20;99.90;;;;;;4972246;28;20407;-79
2022/06/23 05:44:29;;;;;;;13.65;3.85;;;22.30;99.90;;;;;;4972153;28;20062;-79
2022/06/23 05:46:59;;;;;;;10.05;3.15;;;22.30;99.90;;;;;;4972301;28;20027;-79
2022/06/23 05:49:30;;;;;;;8.57;3.25;;;22.50;99.90;;;;;;4972569;28;20027;-79
2022/06/23 05:52:04;;;;;;;12.68;3.00;;;22.60;99.90;;;;;;4972892;28;20527;-80
2022/06/23 05:54:37;;;;;;;10.43;3.20;;;22.70;99.90;;;;;;4972345;28;20035;-80
2022/06/23 05:57:16;;;;;;;14.75;3.80;;;22.60;99.90;;;;;;4972114;28;20042;-80
2022/06/23 06:00:09;;;;;;;12.32;3.17;;;22.60;99.90;;;;;;4971905;28;20522;-79
2022/06/23 06:02:54;;;;;;;12.98;4.10;;;22.60;99.90;;;;;;4972087;28;20563;-79
2022/06/23 06:05:29;;;;;;;15.32;3.58;;;22.80;99.90;;;;;;4972265;28;20047;-79
2022/06/23 06:07:56;;;;;;;10.13;3.45;;;22.90;99.90;;;;;;4954694;28;20589;-80
2022/06/23 06:10:26;;;;;;;12.35;3.45;;;22.80;99.90;;;;;;4971982;28;20030;-79
2022/06/23 06:12:53;;;;;;;9.68;3.35;;;22.80;99.90;;;;;;4973096;28;20122;-79
2022/06/23 06:15:20;;;;;;;13.40;4.20;;;22.90;99.90;;;;;;4971557;28;20037;-79
2022/06/23 06:17:49;;;;;;;12.88;3.42;;;22.70;99.90;;;;;;4971645;28;20106;-79
2022/06/23 06:20:15;;;;;;;9.45;3.30;;;22.60;99.90;;;;;;4971956;28;20082;-79
2022/06/23 06:23:02;;;;;;;11.38;3.70;;;22.80;99.90;;;;;;4972089;28;20033;-79
2022/06/23 06:25:38;;;;;;;13.73;3.92;;;22.80;99.90;;;;;;4971904;28;20495;-80
2022/06/23 06:28:44;;;;;;;12.80;4.28;;;23.10;99.90;;;;;;4968625;28;20062;-80
2022/06/23 06:31:28;;;;;;;10.50;3.55;;;23.10;99.90;;;;;;4965192;28;20058;-79
2022/06/23 06:33:59;;;;;;;10.23;3.42;;;23.20;99.90;;;;;;4972388;28;20022;-79
2022/06/23 06:36:37;;;;;;;12.98;4.13;;;23.20;99.90;;;;;;4954749;28;20181;-79
2022/06/23 06:39:29;;;;;;;8.80;3.70;;;23.30;99.90;;;;;;4971621;28;20069;-79
2022/06/23 06:42:25;;;;;;;16.45;3.67;;;23.40;99.90;;;;;;4962095;28;20419;-79
2022/06/23 06:44:54;;;;;;;15.75;3.70;;;23.50;99.90;;;;;;4972243;28;20038;-79
2022/06/23 06:47:23;;;;;;;10.48;3.90;;;23.50;99.90;;;;;;4975161;28;20027;-79
2022/06/23 06:49:51;;;;;;;11.93;3.80;;;23.40;99.90;;;;;;4975435;28;20406;-79
2022/06/23 06:52:17;;;;;;;9.88;3.28;;;23.50;99.90;;;;;;4975388;28;20023;-79
2022/06/23 06:54:46;;;;;;;10.00;3.20;;;23.60;99.90;;;;;;4973725;28;20191;-79
2022/06/23 06:57:31;;;;;;;14.25;4.18;;;23.60;99.90;;;;;;4974602;28;20086;-79
2022/06/23 07:00:05;;;;;;;10.95;2.92;;;23.80;99.90;;;;;;4974976;28;20469;-79
2022/06/23 07:02:41;;;;;;;13.93;3.33;;;23.90;99.90;;;;;;4975397;28;20054;-79
2022/06/23 07:05:23;;;;;;;12.63;3.63;;;24.30;99.90;;;;;;4974867;28;20050;-79
2022/06/23 07:08:01;;;;;;;10.68;3.40;;;24.30;99.90;;;;;;4957595;28;20411;-79
2022/06/23 07:10:35;;;;;;;14.90;3.40;;;24.40;99.90;;;;;;4974940;28;20027;-79
2022/06/23 07:13:10;;;;;;;9.43;3.00;;;24.30;99.90;;;;;;4970517;28;20031;-79
2022/06/23 07:15:43;;;;;;;15.13;3.78;;;24.30;99.90;;;;;;4974698;28;20031;-79
2022/06/23 07:18:33;;;;;;;15.93;4.10;;;24.50;99.90;;;;;;4974977;28;20037;-79
2022/06/23 07:21:02;;;;;;;11.98;3.40;;;24.70;99.90;;;;;;4974606;28;20490;-79
2022/06/23 07:23:43;;;;;;;14.05;3.88;;;24.90;99.90;;;;;;4974469;28;20522;-79
2022/06/23 07:26:45;;;;;;;11.32;3.47;;;24.80;99.90;;;;;;4974235;28;20035;-79
2022/06/23 07:29:35;;;;;;;12.30;3.80;;;24.80;99.90;;;;;;4974395;28;20103;-79
2022/06/23 07:32:22;;;;;;;16.15;3.40;;;24.70;99.90;;;;;;4957049;28;20046;-79
2022/06/23 07:35:16;;;;;;;11.25;3.35;;;24.50;99.90;;;;;;4961893;28;20113;-79
2022/06/23 07:37:47;;;;;;;10.20;3.15;;;24.50;99.90;;;;;;4960464;28;20031;-79
2022/06/23 07:40:16;;;;;;;14.98;3.88;;;24.50;99.90;;;;;;4974628;28;20046;-79
2022/06/23 07:42:48;;;;;;;15.05;3.72;;;24.70;99.90;;;;;;4974513;28;20122;-79
2022/06/23 07:45:19;;;;;;;13.93;3.50;;;25.00;99.90;;;;;;4974169;28;20039;-79
2022/06/23 07:47:44;;;;;;;12.18;3.72;;;25.50;99.90;;;;;;4974093;28;20031;-79
2022/06/23 07:50:11;;;;;;;9.20;2.90;;;26.10;99.90;;;;;;4974134;28;20119;-79
2022/06/23 07:52:37;;;;;;;11.32;3.30;;;26.20;99.90;;;;;;4974645;28;20105;-79
2022/06/23 07:55:03;;;;;;;11.35;3.30;;;26.20;99.90;;;;;;4974416;28;20563;-79
2022/06/23 07:57:31;;;;;;;9.88;3.17;;;26.40;99.90;;;;;;4973721;28;20487;-79
2022/06/23 08:00:06;;;;;;;12.30;3.25;;;26.40;99.90;;;;;;4974069;28;20019;-79
2022/06/23 08:02:40;;;;;;;11.23;3.80;;;26.30;99.90;;;;;;4974115;28;20030;-79
2022/06/23 08:05:39;;;;;;;17.13;3.67;;;25.90;99.90;;;;;;4973856;28;20039;-79
2022/06/23 08:08:07;;;;;;;12.68;3.50;;;25.80;99.90;;;;;;4922839;29;20106;-79
2022/06/23 08:10:33;;;;;;;14.80;3.72;;;25.90;99.90;;;;;;4918005;29;20078;-79
2022/06/23 08:13:22;;;;;;;12.55;3.42;;;25.80;99.90;;;;;;4929917;29;20253;-79
2022/06/23 08:18:42;;;;;;;12.13;3.92;;;25.80;99.90;;;;;;4931747;29;20042;-80
2022/06/23 08:21:15;;;;;;;12.35;4.05;;;25.90;99.90;;;;;;4933429;29;20596;-79
2022/06/23 08:23:53;;;;;;;17.02;3.78;;;26.00;99.90;;;;;;4933396;29;20059;-79
2022/06/23 08:26:22;;;;;;;16.35;4.00;;;26.00;99.90;;;;;;4933080;29;20513;-79
2022/06/23 08:28:51;;;;;;;14.82;3.90;;;26.40;99.90;;;;;;4932971;29;20448;-79
2022/06/23 08:31:18;;;;;;;19.08;4.63;;;26.60;99.90;;;;;;4932991;29;20596;-79
2022/06/23 08:33:44;;;;;;;13.80;4.13;;;26.40;99.90;;;;;;4931582;29;20405;-79
2022/06/23 08:36:15;;;;;;;15.38;3.60;;;26.50;99.90;;;;;;4932828;29;20034;-79
2022/06/23 08:38:49;;;;;;;15.35;4.10;;;26.70;99.90;;;;;;4932574;29;20039;-79
2022/06/23 08:41:23;;;;;;;14.75;3.80;;;26.90;99.90;;;;;;4932713;29;20062;-79
2022/06/23 08:43:56;;;;;;;24.35;4.82;;;26.90;99.90;;;;;;4933860;29;20066;-79
2022/06/23 08:46:49;;;;;;;14.35;3.60;;;27.20;99.90;;;;;;4971801;28;20490;-79
2022/06/23 08:49:35;;;;;;;13.63;3.72;;;27.50;99.90;;;;;;4959126;28;20043;-79
2022/06/23 08:52:19;;;;;;;13.63;4.13;;;27.80;99.90;;;;;;4969719;28;20399;-80
2022/06/23 08:55:13;;;;;;;17.17;4.32;;;28.10;99.90;;;;;;4971771;28;20055;-79
2022/06/23 08:57:49;;;;;;;16.92;4.07;;;27.80;99.90;;;;;;4973207;28;20046;-79
2022/06/23 09:00:32;;;;;;;20.90;4.30;;;27.70;99.90;;;;;;4972900;28;20483;-79
2022/06/23 09:03:12;;;;;;;18.42;4.13;;;27.80;99.90;;;;;;4972734;28;20027;-79
2022/06/23 09:05:54;;;;;;;17.90;5.10;;;28.20;99.90;;;;;;4973122;28;20129;-80
2022/06/23 09:08:27;;;;;;;20.83;5.88;;;28.30;99.90;;;;;;4971702;28;20038;-79
2022/06/23 09:11:03;;;;;;;18.45;4.82;;;28.90;99.90;;;;;;4972861;28;20019;-79
2022/06/23 09:13:55;;;;;;;25.27;5.90;;;28.90;99.90;;;;;;4972830;28;20538;-79
2022/06/23 09:16:42;;;;;;;25.13;6.75;;;29.00;99.90;;;;;;4967655;28;20038;-80
2022/06/23 09:19:26;;;;;;;21.55;5.28;;;29.40;99.90;;;;;;4970024;28;20122;-79
2022/06/23 09:22:14;;;;;;;24.63;5.82;;;29.80;99.90;;;;;;4971986;28;20054;-79
2022/06/23 09:24:49;;;;;;;26.95;5.85;;;30.20;99.90;;;;;;4972670;28;20034;-79
2022/06/23 09:27:33;;;;;;;27.05;5.93;;;29.20;99.90;;;;;;4972490;28;20027;-80
2022/06/23 09:30:05;;;;;;;20.38;6.03;;;29.10;99.90;;;;;;4972526;28;20031;-80
2022/06/23 09:32:44;;;;;;;21.08;5.63;;;29.20;99.90;;;;;;4972340;28;20479;-80
2022/06/23 09:35:25;;;;;;;19.60;5.45;;;29.20;99.90;;;;;;4972425;28;20027;-80
2022/06/23 09:38:33;;;;;;;24.20;5.75;;;29.80;99.90;;;;;;4972530;28;20505;-80
2022/06/23 09:41:29;;;;;;;23.83;5.28;;;30.20;99.90;;;;;;4961090;28;20063;-80
2022/06/23 09:44:27;;;;;;;23.00;5.40;;;30.30;99.90;;;;;;4960618;28;20170;-80
2022/06/23 09:47:25;;;;;;;19.33;4.40;;;30.40;99.90;;;;;;4951573;28;20027;-79
2022/06/23 09:50:11;;;;;;;18.98;5.20;;;30.70;99.90;;;;;;4875444;29;20124;-80
2022/06/23 09:52:55;;;;;;;17.92;5.63;;;30.90;99.90;;;;;;4875024;29;20470;-80
2022/06/23 09:55:54;;;;;;;26.50;6.00;;;30.80;99.90;;;;;;4875697;29;20077;-79
2022/06/23 09:58:29;;;;;;;28.65;6.38;;;30.60;99.90;;;;;;4874298;29;20041;-79
2022/06/23 10:01:28;;;;;;;25.35;6.50;;;30.70;99.90;;;;;;4875931;29;20068;-79
2022/06/23 10:03:53;;;;;;;23.85;6.15;;;30.30;99.90;;;;;;4875456;29;20041;-79
2022/06/23 10:06:41;;;;;;;22.10;5.60;;;30.10;99.90;;;;;;4875008;29;20387;-79
2022/06/23 10:09:45;;;;;;;25.48;6.53;;;29.70;99.90;;;;;;4875462;29;20037;-79
2022/06/23 10:12:19;;;;;;;24.05;6.05;;;30.10;99.90;;;;;;4875010;29;20029;-80
2022/06/23 10:14:50;;;;;;;21.45;6.38;;;30.50;99.90;;;;;;4875167;29;20049;-80
2022/06/23 10:17:34;;;;;;;25.15;5.78;;;30.30;99.90;;;;;;4875110;29;20044;-80
2022/06/23 10:20:18;;;;;;;19.38;5.57;;;30.50;99.90;;;;;;4876623;29;20044;-79
2022/06/23 10:22:52;;;;;;;23.55;6.20;;;30.40;99.90;;;;;;4878944;29;20085;-80
2022/06/23 10:25:28;;;;;;;25.23;6.18;;;29.90;99.90;;;;;;4879027;29;20120;-80
2022/06/23 10:28:04;;;;;;;22.40;6.35;;;29.80;99.90;;;;;;4972700;28;20042;-80
2022/06/23 10:30:53;;;;;;;21.95;6.05;;;29.80;99.90;;;;;;4976082;28;20039;-79
2022/06/23 10:33:45;;;;;;;29.10;6.55;;;29.70;99.90;;;;;;4975579;28;20027;-80
2022/06/23 10:36:27;;;;;;;23.52;6.07;;;30.00;99.90;;;;;;4975539;28;20045;-80
2022/06/23 10:39:28;;;;;;;23.10;6.70;;;31.10;99.90;;;;;;4975276;28;20053;-79
2022/06/23 10:42:18;;;;;;;26.25;6.15;;;31.10;99.90;;;;;;4975219;28;20027;-80
2022/06/23 10:45:21;;;;;;;27.23;5.88;;;31.40;99.90;;;;;;4975589;28;20042;-79
2022/06/23 10:48:24;;;;;;;24.02;6.72;;;31.20;99.90;;;;;;4975248;28;20101;-79
2022/06/23 10:51:12;;;;;;;21.85;6.57;;;31.90;99.90;;;;;;4974854;28;20089;-80
2022/06/23 10:54:16;;;;;;;23.63;6.30;;;31.70;99.90;;;;;;4975627;28;20452;-79
2022/06/23 10:56:44;;;;;;;30.42;7.47;;;31.80;99.90;;;;;;4975304;28;20026;-80
2022/06/23 10:59:24;;;;;;;25.88;6.30;;;31.40;99.90;;;;;;4975179;28;20377;-79
2022/06/23 11:02:08;;;;;;;29.73;6.93;;;32.20;99.90;;;;;;4975152;28;20030;-80
2022/06/23 11:04:55;;;;;;;23.90;6.25;;;32.30;99.90;;;;;;4959635;28;20093;-79
2022/06/23 11:07:51;;;;;;;32.17;7.63;;;32.10;99.90;;;;;;4974046;28;20027;-80
2022/06/23 11:10:59;;;;;;;25.48;6.90;;;32.20;99.90;;;;;;4973092;28;20404;-79
2022/06/23 11:13:55;;;;;;;25.70;7.10;;;32.50;99.90;;;;;;4974101;28;20162;-79
2022/06/23 11:17:15;;;;;;;27.00;6.47;;;32.20;99.90;;;;;;4973374;28;20019;-80
2022/06/23 11:19:53;;;;;;;28.52;6.63;;;31.80;99.90;;;;;;4882482;29;20032;-80
2022/06/23 11:22:36;;;;;;;28.42;7.03;;;32.50;99.90;;;;;;4881530;29;20126;-80
2022/06/23 11:25:04;;;;;;;26.80;6.85;;;32.40;99.90;;;;;;4878204;29;20073;-80
2022/06/23 11:27:52;;;;;;;30.27;6.82;;;32.10;99.90;;;;;;4892058;29;20125;-80
2022/06/23 11:30:38;;;;;;;24.02;6.47;;;32.10;99.90;;;;;;4887442;29;20072;-79
2022/06/23 11:33:12;;;;;;;25.95;6.47;;;32.20;99.90;;;;;;4885166;29;20036;-79
2022/06/23 11:35:38;;;;;;;25.23;6.45;;;33.40;99.90;;;;;;4885599;29;20224;-79
2022/06/23 11:38:22;;;;;;;22.08;6.30;;;33.50;99.90;;;;;;4885318;29;20041;-79
2022/06/23 11:41:22;;;;;;;28.00;6.13;;;32.90;99.90;;;;;;4881340;29;20049;-80
2022/06/23 11:44:23;;;;;;;26.30;6.15;;;33.50;99.90;;;;;;4894300;29;20044;-80
2022/06/23 11:47:00;;;;;;;24.58;6.35;;;33.80;99.90;;;;;;4882866;29;20049;-79
2022/06/23 11:49:44;;;;;;;23.67;6.38;;;33.90;99.90;;;;;;4881262;29;20049;-79
2022/06/23 11:52:43;;;;;;;27.40;6.72;;;33.80;99.90;;;;;;4896694;28;20036;-78
2022/06/23 11:55:36;;;;;;;25.33;6.28;;;34.10;99.90;;;;;;4895650;29;20068;-80
2022/06/23 11:58:17;;;;;;;31.33;7.22;;;33.00;99.90;;;;;;4892384;29;20517;-80
2022/06/23 12:01:17;;;;;;;30.58;6.43;;;32.30;99.90;;;;;;4895880;29;20064;-80
2022/06/23 12:04:10;;;;;;;24.30;6.07;;;32.20;99.90;;;;;;4895537;29;20037;-80
2022/06/23 12:07:01;;;;;;;20.02;5.82;;;32.40;99.90;;;;;;4895762;29;20048;-80
2022/06/23 12:09:47;;;;;;;23.88;6.70;;;32.20;99.90;;;;;;4895305;29;20068;-80
2022/06/23 12:12:13;;;;;;;22.08;6.13;;;32.60;99.90;;;;;;4895214;29;20438;-80
2022/06/23 12:14:39;;;;;;;25.65;6.70;;;32.00;99.90;;;;;;4895203;29;20123;-80
2022/06/23 12:17:33;;;;;;;25.15;6.05;;;32.00;99.90;;;;;;4895137;29;20417;-79
2022/06/23 12:20:11;;;;;;;19.13;6.18;;;33.90;99.90;;;;;;4884122;29;20099;-80
2022/06/23 12:22:53;;;;;;;28.08;6.88;;;32.40;99.90;;;;;;4880831;29;20025;-80
2022/06/23 12:25:40;;;;;;;23.45;6.55;;;33.80;99.90;;;;;;4895648;29;20044;-80
2022/06/23 12:28:20;;;;;;;26.75;6.28;;;36.00;99.90;;;;;;4892169;29;20461;-80
2022/06/23 12:31:06;;;;;;;20.27;6.25;;;38.10;99.90;;;;;;4895265;29;20043;-80
2022/06/23 12:33:42;;;;;;;26.73;6.65;;;38.40;99.90;;;;;;4974312;28;20035;-80
2022/06/23 12:36:20;;;;;;;22.17;6.15;;;39.00;99.90;;;;;;4972955;28;20034;-80
2022/06/23 12:38:54;;;;;;;21.75;6.05;;;38.80;99.90;;;;;;4972916;28;20051;-80
2022/06/23 12:41:38;;;;;;;26.23;6.35;;;39.20;99.90;;;;;;4973585;28;20031;-80
2022/06/23 12:44:22;;;;;;;23.13;6.32;;;38.00;99.90;;;;;;4972261;28;20039;-80
2022/06/23 12:47:27;;;;;;;21.80;5.93;;;36.80;99.90;;;;;;4959405;28;20038;-80
2022/06/23 12:50:13;;;;;;;19.40;5.60;;;35.70;99.90;;;;;;4876138;29;20033;-80
2022/06/23 12:53:04;;;;;;;20.42;5.68;;;35.70;99.90;;;;;;4824964;29;20140;-80
2022/06/23 12:55:50;;;;;;;18.95;5.22;;;37.70;99.90;;;;;;4839090;29;20049;-80
2022/06/23 12:58:33;;;;;;;18.58;6.05;;;36.70;99.90;;;;;;4839233;29;20046;-80
2022/06/23 13:01:15;;;;;;;21.48;5.72;;;35.20;99.90;;;;;;4839283;29;20046;-80
2022/06/23 13:03:50;;;;;;;18.40;6.40;;;33.70;99.90;;;;;;4838912;29;20054;-79
2022/06/23 13:06:30;;;;;;;23.63;6.60;;;32.80;99.90;;;;;;4838715;29;20038;-80
2022/06/23 13:09:15;;;;;;;17.38;5.00;;;32.10;99.90;;;;;;4838557;29;20488;-80
2022/06/23 13:11:50;;;;;;;11.45;4.38;;;30.50;99.90;;;;;;4839243;29;20040;-80
2022/06/23 13:14:30;;;;;;;24.45;4.82;;;28.80;99.90;;;;;;4838434;29;20044;-79
2022/06/23 13:17:04;;;;;;;19.73;6.53;;;27.60;99.90;;;;;;4838944;29;20054;-79
2022/06/23 13:19:48;;;;;;;18.10;5.20;;;24.50;99.90;;;;;;4838799;29;20049;-79
2022/06/23 13:22:14;;;;;;;8.18;1.58;;;26.20;99.90;;;;;;4838563;29;20057;-80
2022/06/23 13:24:43;;;;;;;13.82;4.10;;;20.20;99.90;;;;;;4839530;29;20133;-80
2022/06/23 13:27:22;;;;;;;11.50;4.00;;;21.10;99.90;;;;;;4891014;29;20053;-79
2022/06/23 13:29:54;;;;;;;14.57;4.28;;;21.70;99.90;;;;;;4943369;28;20061;-79
2022/06/23 13:32:41;;;;;;;15.68;5.43;;;22.30;99.90;;;;;;4972514;28;20390;-79
2022/06/23 13:35:29;;;;;;;12.63;4.85;;;22.60;99.90;;;;;;4972799;28;20034;-78
2022/06/23 13:38:01;;;;;;;19.50;6.07;;;22.00;99.90;;;;;;4960413;28;20450;-78
2022/06/23 13:40:49;;;;;;;11.73;5.97;;;23.30;99.90;;;;;;4972376;28;20073;-78
2022/06/23 13:43:52;;;;;;;162.07;19.98;;;24.20;99.90;;;;;;4970130;28;20113;-78
2022/06/23 13:46:23;;;;;;;15.55;5.50;;;26.10;99.90;;;;;;4970527;28;20495;-78
2022/06/23 13:49:03;;;;;;;13.98;4.45;;;27.10;99.90;;;;;;4971473;28;20110;-79
2022/06/23 13:51:47;;;;;;;13.43;4.05;;;26.70;99.90;;;;;;4972144;28;20511;-79
2022/06/23 13:54:18;;;;;;;9.93;3.83;;;27.40;99.90;;;;;;4973161;28;20114;-78
2022/06/23 13:57:05;;;;;;;8.30;3.38;;;28.50;99.90;;;;;;4976014;28;20073;-78
2022/06/23 13:59:52;;;;;;;6.97;3.65;;;28.80;99.90;;;;;;4975823;28;20495;-78